sensor_id;sensor_type;location;lat;lon;timestamp;pressure;altitude;pressure_sealevel;temperature;humidity
62402;BME280;48440;51.224;22.506;2023-08-01T00:01:32;98540.97;;;18.54;64.28
62402;BME280;48440;51.224;22.506;2023-08-01T00:03:57;98535.16;;;18.56;64.83
62402;BME280;48440;51.224;22.506;2023-08-01T00:06:23;98538.38;;;18.49;64.89
62402;BME280;48440;51.224;22.506;2023-08-01T00:08:50;98535.97;;;18.48;65.05
62402;BME280;48440;51.224;22.506;2023-08-01T00:11:15;98536.44;;;18.50;65.03
62402;BME280;48440;51.224;22.506;2023-08-01T00:13:41;98536.44;;;18.50;64.94
62402;BME280;48440;51.224;22.506;2023-08-01T00:16:08;98530.47;;;18.48;65.09
62402;BME280;48440;51.224;22.506;2023-08-01T00:18:34;98533.69;;;18.50;65.15
62402;BME280;48440;51.224;22.506;2023-08-01T00:21:00;98532.09;;;18.49;65.20
62402;BME280;48440;51.224;22.506;2023-08-01T00:23:25;98535.03;;;18.44;65.34
62402;BME280;48440;51.224;22.506;2023-08-01T00:25:51;98529.19;;;18.45;65.09
62402;BME280;48440;51.224;22.506;2023-08-01T00:28:18;98526.09;;;18.47;64.97
62402;BME280;48440;51.224;22.506;2023-08-01T00:30:43;98520.94;;;18.45;64.95
62402;BME280;48440;51.224;22.506;2023-08-01T00:33:09;98533.72;;;18.41;64.97
62402;BME280;48440;51.224;22.506;2023-08-01T00:35:34;98523.38;;;18.38;65.04
62402;BME280;48440;51.224;22.506;2023-08-01T00:38:00;98527.59;;;18.36;65.12
62402;BME280;48440;51.224;22.506;2023-08-01T00:40:30;98524.03;;;18.35;65.10
62402;BME280;48440;51.224;22.506;2023-08-01T00:42:56;98521.59;;;18.34;65.50
62402;BME280;48440;51.224;22.506;2023-08-01T00:45:22;98519.03;;;18.28;65.70
62402;BME280;48440;51.224;22.506;2023-08-01T00:47:51;98524.34;;;18.25;65.42
62402;BME280;48440;51.224;22.506;2023-08-01T00:50:17;98514.50;;;18.24;65.59
62402;BME280;48440;51.224;22.506;2023-08-01T00:52:45;98515.31;;;18.24;65.53
62402;BME280;48440;51.224;22.506;2023-08-01T00:55:11;98519.00;;;18.20;65.79
62402;BME280;48440;51.224;22.506;2023-08-01T00:57:37;98525.66;;;18.19;65.65
62402;BME280;48440;51.224;22.506;2023-08-01T01:00:03;98519.69;;;18.17;65.68
62402;BME280;48440;51.224;22.506;2023-08-01T01:02:29;98514.03;;;18.13;65.66
62402;BME280;48440;51.224;22.506;2023-08-01T01:04:54;98519.69;;;18.17;65.85
62402;BME280;48440;51.224;22.506;2023-08-01T01:07:21;98523.22;;;18.09;66.19
62402;BME280;48440;51.224;22.506;2023-08-01T01:09:47;98512.56;;;18.07;65.84
62402;BME280;48440;51.224;22.506;2023-08-01T01:12:15;98510.94;;;18.06;66.23
62402;BME280;48440;51.224;22.506;2023-08-01T01:14:40;98509.50;;;18.09;65.77
62402;BME280;48440;51.224;22.506;2023-08-01T01:17:06;98509.81;;;18.07;65.99
62402;BME280;48440;51.224;22.506;2023-08-01T01:19:31;98509.50;;;18.00;66.14
62402;BME280;48440;51.224;22.506;2023-08-01T01:21:57;98516.75;;;17.96;66.30
62402;BME280;48440;51.224;22.506;2023-08-01T01:24:24;98512.72;;;17.93;66.47
62402;BME280;48440;51.224;22.506;2023-08-01T01:26:51;98502.88;;;17.92;66.43
62402;BME280;48440;51.224;22.506;2023-08-01T01:29:18;98502.41;;;17.90;66.40
62402;BME280;48440;51.224;22.506;2023-08-01T01:31:45;98500.63;;;17.86;66.43
62402;BME280;48440;51.224;22.506;2023-08-01T01:34:11;98499.16;;;17.88;66.44
62402;BME280;48440;51.224;22.506;2023-08-01T01:36:37;98500.28;;;17.87;66.43
62402;BME280;48440;51.224;22.506;2023-08-01T01:39:02;98504.47;;;17.85;66.92
62402;BME280;48440;51.224;22.506;2023-08-01T01:41:28;98488.03;;;17.85;66.79
62402;BME280;48440;51.224;22.506;2023-08-01T01:43:53;98494.31;;;17.85;66.95
62402;BME280;48440;51.224;22.506;2023-08-01T01:46:18;98489.31;;;17.87;66.92
62402;BME280;48440;51.224;22.506;2023-08-01T01:48:44;98490.63;;;17.90;66.88
62402;BME280;48440;51.224;22.506;2023-08-01T01:51:09;98481.22;;;17.82;67.16
62402;BME280;48440;51.224;22.506;2023-08-01T01:53:35;98483.31;;;17.77;67.19
62402;BME280;48440;51.224;22.506;2023-08-01T01:56:01;98474.78;;;17.78;67.37
62402;BME280;48440;51.224;22.506;2023-08-01T01:58:27;98472.19;;;17.73;67.29
62402;BME280;48440;51.224;22.506;2023-08-01T02:00:55;98477.66;;;17.73;67.20
62402;BME280;48440;51.224;22.506;2023-08-01T02:03:21;98472.81;;;17.70;67.33
62402;BME280;48440;51.224;22.506;2023-08-01T02:05:46;98456.34;;;17.70;67.33
62402;BME280;48440;51.224;22.506;2023-08-01T02:08:12;98459.41;;;17.69;67.15
62402;BME280;48440;51.224;22.506;2023-08-01T02:10:38;98456.34;;;17.70;66.83
62402;BME280;48440;51.224;22.506;2023-08-01T02:13:03;98466.03;;;17.68;67.27
62402;BME280;48440;51.224;22.506;2023-08-01T02:15:29;98454.22;;;17.58;67.41
62402;BME280;48440;51.224;22.506;2023-08-01T02:17:56;98453.28;;;17.63;67.44
62402;BME280;48440;51.224;22.506;2023-08-01T02:20:21;98457.94;;;17.62;67.16
62402;BME280;48440;51.224;22.506;2023-08-01T02:22:47;98452.47;;;17.62;67.54
62402;BME280;48440;51.224;22.506;2023-08-01T02:25:12;98450.03;;;17.61;67.24
62402;BME280;48440;51.224;22.506;2023-08-01T02:27:38;98454.41;;;17.62;67.40
62402;BME280;48440;51.224;22.506;2023-08-01T02:30:03;98456.66;;;17.60;67.53
62402;BME280;48440;51.224;22.506;2023-08-01T02:32:30;98452.63;;;17.57;67.51
62402;BME280;48440;51.224;22.506;2023-08-01T02:34:56;98444.38;;;17.57;67.37
62402;BME280;48440;51.224;22.506;2023-08-01T02:37:21;98446.47;;;17.52;67.92
62402;BME280;48440;51.224;22.506;2023-08-01T02:39:47;98440.97;;;17.52;67.59
62402;BME280;48440;51.224;22.506;2023-08-01T02:42:12;98443.72;;;17.52;67.78
62402;BME280;48440;51.224;22.506;2023-08-01T02:44:38;98446.47;;;17.52;67.63
62402;BME280;48440;51.224;22.506;2023-08-01T02:47:03;98445.50;;;17.48;67.54
62402;BME280;48440;51.224;22.506;2023-08-01T02:49:31;98442.44;;;17.49;68.05
62402;BME280;48440;51.224;22.506;2023-08-01T02:51:56;98437.72;;;17.41;68.17
62402;BME280;48440;51.224;22.506;2023-08-01T02:54:22;98436.44;;;17.47;67.60
62402;BME280;48440;51.224;22.506;2023-08-01T02:56:47;98439.50;;;17.46;67.88
62402;BME280;48440;51.224;22.506;2023-08-01T02:59:13;98429.34;;;17.46;67.91
62402;BME280;48440;51.224;22.506;2023-08-01T03:01:38;98431.94;;;17.43;67.84
62402;BME280;48440;51.224;22.506;2023-08-01T03:04:05;98426.94;;;17.45;67.82
62402;BME280;48440;51.224;22.506;2023-08-01T03:06:32;98421.75;;;17.43;67.98
62402;BME280;48440;51.224;22.506;2023-08-01T03:08:58;98418.53;;;17.41;68.09
62402;BME280;48440;51.224;22.506;2023-08-01T03:11:24;98414.84;;;17.37;68.05
62402;BME280;48440;51.224;22.506;2023-08-01T03:13:50;98418.88;;;17.40;67.89
62402;BME280;48440;51.224;22.506;2023-08-01T03:16:16;98421.94;;;17.38;68.16
62402;BME280;48440;51.224;22.506;2023-08-01T03:18:45;98418.38;;;17.38;68.28
62402;BME280;48440;51.224;22.506;2023-08-01T03:21:10;98414.53;;;17.39;68.18
62402;BME280;48440;51.224;22.506;2023-08-01T03:23:36;98416.13;;;17.40;68.26
62402;BME280;48440;51.224;22.506;2023-08-01T03:26:02;98410.16;;;17.38;68.29
62402;BME280;48440;51.224;22.506;2023-08-01T03:28:28;98414.22;;;17.40;68.24
62402;BME280;48440;51.224;22.506;2023-08-01T03:30:53;98406.94;;;17.44;67.88
62402;BME280;48440;51.224;22.506;2023-08-01T03:33:20;98408.53;;;17.45;68.02
62402;BME280;48440;51.224;22.506;2023-08-01T03:35:45;98406.47;;;17.51;68.03
62402;BME280;48440;51.224;22.506;2023-08-01T03:38:11;98397.09;;;17.52;67.74
62402;BME280;48440;51.224;22.506;2023-08-01T03:40:36;98395.47;;;17.51;67.32
62402;BME280;48440;51.224;22.506;2023-08-01T03:43:01;98398.22;;;17.51;67.46
62402;BME280;48440;51.224;22.506;2023-08-01T03:45:27;98392.59;;;17.56;67.57
62402;BME280;48440;51.224;22.506;2023-08-01T03:47:52;98395.66;;;17.63;66.87
62402;BME280;48440;51.224;22.506;2023-08-01T03:50:18;98397.28;;;17.64;66.90
62402;BME280;48440;51.224;22.506;2023-08-01T03:52:43;98393.91;;;17.67;66.93
62402;BME280;48440;51.224;22.506;2023-08-01T03:55:09;98394.72;;;17.68;66.97
62402;BME280;48440;51.224;22.506;2023-08-01T03:57:34;98394.53;;;17.64;66.88
62402;BME280;48440;51.224;22.506;2023-08-01T04:00:00;98387.94;;;17.65;66.95
62402;BME280;48440;51.224;22.506;2023-08-01T04:02:25;98386.00;;;17.66;67.14
62402;BME280;48440;51.224;22.506;2023-08-01T04:04:51;98385.66;;;17.67;67.35
62402;BME280;48440;51.224;22.506;2023-08-01T04:07:17;98387.63;;;17.67;67.25
62402;BME280;48440;51.224;22.506;2023-08-01T04:09:43;98391.00;;;17.72;67.00
62402;BME280;48440;51.224;22.506;2023-08-01T04:12:09;98388.09;;;17.77;66.95
62402;BME280;48440;51.224;22.506;2023-08-01T04:14:34;98374.53;;;17.89;66.56
62402;BME280;48440;51.224;22.506;2023-08-01T04:17:00;98375.00;;;18.00;66.30
62402;BME280;48440;51.224;22.506;2023-08-01T04:19:25;98372.41;;;18.12;65.92
62402;BME280;48440;51.224;22.506;2023-08-01T04:21:51;98377.50;;;18.31;65.31
62402;BME280;48440;51.224;22.506;2023-08-01T04:24:17;98371.16;;;18.48;64.45
62402;BME280;48440;51.224;22.506;2023-08-01T04:26:42;98363.38;;;18.58;64.10
62402;BME280;48440;51.224;22.506;2023-08-01T04:29:08;98362.22;;;18.68;63.34
62402;BME280;48440;51.224;22.506;2023-08-01T04:31:33;98356.84;;;18.72;63.86
62402;BME280;48440;51.224;22.506;2023-08-01T04:33:58;98354.88;;;18.81;63.44
62402;BME280;48440;51.224;22.506;2023-08-01T04:36:24;98357.13;;;18.87;63.28
62402;BME280;48440;51.224;22.506;2023-08-01T04:38:49;98340.84;;;19.03;62.74
62402;BME280;48440;51.224;22.506;2023-08-01T04:41:15;98344.03;;;19.14;62.91
62402;BME280;48440;51.224;22.506;2023-08-01T04:43:40;98343.28;;;19.25;62.25
62402;BME280;48440;51.224;22.506;2023-08-01T04:46:06;98342.09;;;19.35;62.43
62402;BME280;48440;51.224;22.506;2023-08-01T04:48:31;98345.34;;;19.49;61.89
62402;BME280;48440;51.224;22.506;2023-08-01T04:50:57;98350.97;;;19.61;61.60
62402;BME280;48440;51.224;22.506;2023-08-01T04:53:22;98347.22;;;19.66;61.23
62402;BME280;48440;51.224;22.506;2023-08-01T04:55:48;98337.84;;;19.79;61.33
62402;BME280;48440;51.224;22.506;2023-08-01T04:58:13;98341.28;;;19.76;60.92
62402;BME280;48440;51.224;22.506;2023-08-01T05:00:40;98335.56;;;19.81;61.29
62402;BME280;48440;51.224;22.506;2023-08-01T05:03:06;98332.41;;;19.91;60.92
62402;BME280;48440;51.224;22.506;2023-08-01T05:05:32;98338.41;;;20.06;60.24
62402;BME280;48440;51.224;22.506;2023-08-01T05:07:57;98332.22;;;20.09;59.97
62402;BME280;48440;51.224;22.506;2023-08-01T05:10:23;98331.00;;;20.30;60.00
62402;BME280;48440;51.224;22.506;2023-08-01T05:12:48;98330.03;;;20.47;59.64
62402;BME280;48440;51.224;22.506;2023-08-01T05:15:14;98324.41;;;20.68;59.16
62402;BME280;48440;51.224;22.506;2023-08-01T05:17:39;98332.22;;;20.78;58.62
62402;BME280;48440;51.224;22.506;2023-08-01T05:20:05;98330.72;;;20.93;59.11
62402;BME280;48440;51.224;22.506;2023-08-01T05:22:31;98325.88;;;21.14;58.96
62402;BME280;48440;51.224;22.506;2023-08-01T05:24:56;98331.63;;;21.21;58.92
62402;BME280;48440;51.224;22.506;2023-08-01T05:27:24;98324.47;;;21.32;58.07
62402;BME280;48440;51.224;22.506;2023-08-01T05:29:50;98331.56;;;21.46;57.94
62402;BME280;48440;51.224;22.506;2023-08-01T05:32:15;98328.34;;;21.56;56.99
62402;BME280;48440;51.224;22.506;2023-08-01T05:34:41;98330.81;;;21.61;56.78
62402;BME280;48440;51.224;22.506;2023-08-01T05:37:06;98321.34;;;21.74;56.94
62402;BME280;48440;51.224;22.506;2023-08-01T05:39:32;98322.03;;;21.99;57.31
62402;BME280;48440;51.224;22.506;2023-08-01T05:41:57;98318.41;;;22.11;55.77
62402;BME280;48440;51.224;22.506;2023-08-01T05:44:22;98319.59;;;22.10;55.92
62402;BME280;48440;51.224;22.506;2023-08-01T05:46:48;98324.03;;;22.14;55.82
62402;BME280;48440;51.224;22.506;2023-08-01T05:51:39;98321.31;;;22.46;55.34
62402;BME280;48440;51.224;22.506;2023-08-01T05:54:05;98312.59;;;22.59;54.90
62402;BME280;48440;51.224;22.506;2023-08-01T05:56:30;98314.19;;;22.76;54.70
62402;BME280;48440;51.224;22.506;2023-08-01T05:58:55;98310.59;;;22.91;54.42
62402;BME280;48440;51.224;22.506;2023-08-01T06:01:22;98310.81;;;23.18;54.19
62402;BME280;48440;51.224;22.506;2023-08-01T06:03:47;98312.38;;;23.34;53.98
62402;BME280;48440;51.224;22.506;2023-08-01T06:06:13;98309.28;;;23.55;53.38
62402;BME280;48440;51.224;22.506;2023-08-01T06:08:38;98303.38;;;23.76;53.38
62402;BME280;48440;51.224;22.506;2023-08-01T06:11:04;98312.41;;;23.73;53.05
62402;BME280;48440;51.224;22.506;2023-08-01T06:13:29;98304.75;;;23.66;51.64
62402;BME280;48440;51.224;22.506;2023-08-01T06:15:55;98304.91;;;23.74;51.84
62402;BME280;48440;51.224;22.506;2023-08-01T06:18:21;98305.69;;;23.93;50.94
62402;BME280;48440;51.224;22.506;2023-08-01T06:20:47;98296.53;;;23.89;50.64
62402;BME280;48440;51.224;22.506;2023-08-01T06:23:13;98301.13;;;23.82;50.95
62402;BME280;48440;51.224;22.506;2023-08-01T06:25:38;98294.59;;;23.93;51.15
62402;BME280;48440;51.224;22.506;2023-08-01T06:28:04;98287.59;;;24.22;50.99
62402;BME280;48440;51.224;22.506;2023-08-01T06:30:29;98279.75;;;24.24;50.10
62402;BME280;48440;51.224;22.506;2023-08-01T06:32:55;98270.81;;;24.57;50.80
62402;BME280;48440;51.224;22.506;2023-08-01T06:35:20;98277.44;;;24.76;48.68
62402;BME280;48440;51.224;22.506;2023-08-01T06:37:46;98273.91;;;24.79;47.40
62402;BME280;48440;51.224;22.506;2023-08-01T06:40:12;98274.44;;;24.61;48.01
62402;BME280;48440;51.224;22.506;2023-08-01T06:42:37;98263.47;;;24.46;47.46
62402;BME280;48440;51.224;22.506;2023-08-01T06:45:06;98278.16;;;24.46;48.07
62402;BME280;48440;51.224;22.506;2023-08-01T06:47:32;98266.22;;;24.42;48.68
62402;BME280;48440;51.224;22.506;2023-08-01T06:49:57;98255.22;;;24.49;48.45
62402;BME280;48440;51.224;22.506;2023-08-01T06:52:23;98258.00;;;24.76;48.34
62402;BME280;48440;51.224;22.506;2023-08-01T06:54:52;98259.91;;;24.68;48.01
62402;BME280;48440;51.224;22.506;2023-08-01T06:57:17;98250.00;;;24.44;48.20
62402;BME280;48440;51.224;22.506;2023-08-01T06:59:43;98255.31;;;24.30;47.71
62402;BME280;48440;51.224;22.506;2023-08-01T07:02:08;98255.66;;;24.06;48.72
62402;BME280;48440;51.224;22.506;2023-08-01T07:04:36;98251.44;;;23.92;48.50
62402;BME280;48440;51.224;22.506;2023-08-01T07:07:03;98252.00;;;23.79;48.90
62402;BME280;48440;51.224;22.506;2023-08-01T07:09:28;98249.91;;;24.18;49.35
62402;BME280;48440;51.224;22.506;2023-08-01T07:11:54;98249.69;;;24.76;48.58
62402;BME280;48440;51.224;22.506;2023-08-01T07:14:20;98246.13;;;25.01;46.73
62402;BME280;48440;51.224;22.506;2023-08-01T07:16:45;98242.03;;;25.18;45.85
62402;BME280;48440;51.224;22.506;2023-08-01T07:19:11;98244.34;;;25.46;45.36
62402;BME280;48440;51.224;22.506;2023-08-01T07:21:36;98239.50;;;25.73;44.61
62402;BME280;48440;51.224;22.506;2023-08-01T07:24:02;98230.88;;;25.82;43.88
62402;BME280;48440;51.224;22.506;2023-08-01T07:26:28;98233.44;;;25.97;43.03
62402;BME280;48440;51.224;22.506;2023-08-01T07:28:54;98232.50;;;25.86;42.35
62402;BME280;48440;51.224;22.506;2023-08-01T07:31:20;98231.47;;;26.01;42.80
62402;BME280;48440;51.224;22.506;2023-08-01T07:33:46;98231.97;;;26.11;42.16
62402;BME280;48440;51.224;22.506;2023-08-01T07:36:14;98221.38;;;26.23;42.06
62402;BME280;48440;51.224;22.506;2023-08-01T07:38:40;98221.50;;;26.38;41.49
62402;BME280;48440;51.224;22.506;2023-08-01T07:41:09;98217.22;;;26.51;41.34
62402;BME280;48440;51.224;22.506;2023-08-01T07:43:37;98210.16;;;26.64;41.17
62402;BME280;48440;51.224;22.506;2023-08-01T07:46:03;98204.84;;;26.96;42.22
62402;BME280;48440;51.224;22.506;2023-08-01T07:48:29;98205.25;;;26.98;40.26
62402;BME280;48440;51.224;22.506;2023-08-01T07:50:54;98208.88;;;27.09;40.13
62402;BME280;48440;51.224;22.506;2023-08-01T07:53:20;98212.31;;;26.88;39.73
62402;BME280;48440;51.224;22.506;2023-08-01T07:55:45;98191.81;;;26.56;40.13
62402;BME280;48440;51.224;22.506;2023-08-01T07:58:11;98192.13;;;25.99;41.78
62402;BME280;48440;51.224;22.506;2023-08-01T08:00:37;98205.06;;;25.81;42.99
62402;BME280;48440;51.224;22.506;2023-08-01T08:03:02;98210.28;;;25.53;43.96
62402;BME280;48440;51.224;22.506;2023-08-01T08:05:28;98202.66;;;25.43;43.92
62402;BME280;48440;51.224;22.506;2023-08-01T08:07:56;98197.16;;;25.46;43.93
62402;BME280;48440;51.224;22.506;2023-08-01T08:10:22;98201.97;;;25.53;43.68
62402;BME280;48440;51.224;22.506;2023-08-01T08:12:48;98194.13;;;25.62;44.16
62402;BME280;48440;51.224;22.506;2023-08-01T08:15:17;98194.25;;;25.69;44.52
62402;BME280;48440;51.224;22.506;2023-08-01T08:17:46;98199.84;;;25.76;43.65
62402;BME280;48440;51.224;22.506;2023-08-01T08:37:31;98182.81;;;26.73;43.52
62402;BME280;48440;51.224;22.506;2023-08-01T08:39:57;98175.75;;;26.93;43.42
62402;BME280;48440;51.224;22.506;2023-08-01T08:50:10;98179.78;;;25.93;45.30
62402;BME280;48440;51.224;22.506;2023-08-01T08:52:37;98177.06;;;26.00;45.27
62402;BME280;48440;51.224;22.506;2023-08-01T08:55:04;98172.75;;;26.07;45.21
62402;BME280;48440;51.224;22.506;2023-08-01T08:57:31;98169.47;;;25.94;44.96
62402;BME280;48440;51.224;22.506;2023-08-01T08:59:58;98167.91;;;25.96;45.28
62402;BME280;48440;51.224;22.506;2023-08-01T09:02:25;98170.22;;;25.87;44.94
62402;BME280;48440;51.224;22.506;2023-08-01T09:04:50;98178.50;;;25.84;45.68
62402;BME280;48440;51.224;22.506;2023-08-01T09:07:19;98157.47;;;25.83;46.08
62402;BME280;48440;51.224;22.506;2023-08-01T09:09:48;98161.97;;;26.01;45.84
62402;BME280;48440;51.224;22.506;2023-08-01T09:12:17;98155.94;;;26.36;45.58
62402;BME280;48440;51.224;22.506;2023-08-01T09:14:50;98156.91;;;26.62;45.15
62402;BME280;48440;51.224;22.506;2023-08-01T09:17:16;98160.06;;;26.60;44.21
62402;BME280;48440;51.224;22.506;2023-08-01T09:19:46;98156.06;;;26.58;45.18
62402;BME280;48440;51.224;22.506;2023-08-01T09:22:16;98148.16;;;26.63;45.44
62402;BME280;48440;51.224;22.506;2023-08-01T09:24:52;98156.50;;;26.60;44.96
62402;BME280;48440;51.224;22.506;2023-08-01T09:27:17;98145.38;;;26.60;45.79
62402;BME280;48440;51.224;22.506;2023-08-01T09:29:43;98145.78;;;26.65;45.16
62402;BME280;48440;51.224;22.506;2023-08-01T09:32:13;98138.94;;;26.52;44.69
62402;BME280;48440;51.224;22.506;2023-08-01T09:34:44;98147.25;;;26.42;44.31
62402;BME280;48440;51.224;22.506;2023-08-01T09:37:12;98139.16;;;26.29;44.34
62402;BME280;48440;51.224;22.506;2023-08-01T09:39:41;98128.22;;;26.47;44.12
62402;BME280;48440;51.224;22.506;2023-08-01T09:42:12;98131.94;;;26.73;44.64
62402;BME280;48440;51.224;22.506;2023-08-01T09:44:38;98142.28;;;26.76;44.89
62402;BME280;48440;51.224;22.506;2023-08-01T09:47:05;98132.72;;;26.73;44.20
62402;BME280;48440;51.224;22.506;2023-08-01T09:49:33;98136.97;;;26.49;44.72
62402;BME280;48440;51.224;22.506;2023-08-01T09:52:00;98128.41;;;26.21;45.42
62402;BME280;48440;51.224;22.506;2023-08-01T09:54:26;98131.41;;;25.98;46.95
62402;BME280;48440;51.224;22.506;2023-08-01T09:56:53;98131.28;;;25.84;46.48
62402;BME280;48440;51.224;22.506;2023-08-01T09:59:21;98137.78;;;25.61;46.71
62402;BME280;48440;51.224;22.506;2023-08-01T10:01:48;98137.66;;;25.51;47.61
62402;BME280;48440;51.224;22.506;2023-08-01T10:04:18;98128.50;;;25.43;47.29
62402;BME280;48440;51.224;22.506;2023-08-01T10:06:46;98125.97;;;25.31;47.41
62402;BME280;48440;51.224;22.506;2023-08-01T10:09:15;98128.31;;;25.29;47.49
62402;BME280;48440;51.224;22.506;2023-08-01T10:11:44;98122.34;;;25.27;47.97
62402;BME280;48440;51.224;22.506;2023-08-01T10:14:10;98129.78;;;25.16;48.29
62402;BME280;48440;51.224;22.506;2023-08-01T10:16:36;98128.88;;;25.08;48.70
62402;BME280;48440;51.224;22.506;2023-08-01T10:19:02;98120.56;;;25.08;48.96
62402;BME280;48440;51.224;22.506;2023-08-01T10:21:28;98122.06;;;25.02;49.85
62402;BME280;48440;51.224;22.506;2023-08-01T10:23:55;98122.88;;;25.02;50.31
62402;BME280;48440;51.224;22.506;2023-08-01T10:26:26;98115.38;;;25.07;51.28
62402;BME280;48440;51.224;22.506;2023-08-01T10:28:52;98115.44;;;25.10;50.23
62402;BME280;48440;51.224;22.506;2023-08-01T10:31:19;98105.03;;;25.03;49.70
62402;BME280;48440;51.224;22.506;2023-08-01T10:33:47;98105.38;;;24.98;50.69
62402;BME280;48440;51.224;22.506;2023-08-01T10:36:23;98107.63;;;24.89;51.21
62402;BME280;48440;51.224;22.506;2023-08-01T10:38:53;98105.66;;;24.90;50.82
62402;BME280;48440;51.224;22.506;2023-08-01T10:41:39;98099.63;;;24.84;50.70
62402;BME280;48440;51.224;22.506;2023-08-01T10:46:55;98094.22;;;24.95;51.16
62402;BME280;48440;51.224;22.506;2023-08-01T10:49:32;98093.44;;;24.94;51.07
62402;BME280;48440;51.224;22.506;2023-08-01T10:51:58;98085.00;;;24.87;51.08
62402;BME280;48440;51.224;22.506;2023-08-01T10:54:25;98081.47;;;24.90;52.08
62402;BME280;48440;51.224;22.506;2023-08-01T10:56:56;98083.03;;;24.88;51.58
62402;BME280;48440;51.224;22.506;2023-08-01T10:59:23;98075.56;;;24.92;51.40
62402;BME280;48440;51.224;22.506;2023-08-01T11:01:50;98089.47;;;24.95;51.31
62402;BME280;48440;51.224;22.506;2023-08-01T11:04:21;98082.72;;;24.93;50.00
62402;BME280;48440;51.224;22.506;2023-08-01T11:06:53;98083.22;;;25.02;50.23
62402;BME280;48440;51.224;22.506;2023-08-01T11:09:25;98073.66;;;24.99;49.97
62402;BME280;48440;51.224;22.506;2023-08-01T11:11:56;98079.66;;;25.01;50.50
62402;BME280;48440;51.224;22.506;2023-08-01T11:14:23;98078.00;;;24.97;51.31
62402;BME280;48440;51.224;22.506;2023-08-01T11:16:49;98084.31;;;24.94;51.04
62402;BME280;48440;51.224;22.506;2023-08-01T11:19:25;98083.88;;;24.92;51.64
62402;BME280;48440;51.224;22.506;2023-08-01T11:21:51;98077.91;;;24.90;50.50
62402;BME280;48440;51.224;22.506;2023-08-01T11:24:18;98078.72;;;24.90;50.18
62402;BME280;48440;51.224;22.506;2023-08-01T11:26:45;98087.31;;;24.82;51.13
62402;BME280;48440;51.224;22.506;2023-08-01T11:29:11;98085.28;;;24.79;50.98
62402;BME280;48440;51.224;22.506;2023-08-01T11:31:38;98079.28;;;24.73;50.55
62402;BME280;48440;51.224;22.506;2023-08-01T11:34:03;98091.91;;;24.67;51.67
62402;BME280;48440;51.224;22.506;2023-08-01T11:36:29;98081.50;;;24.60;51.65
62402;BME280;48440;51.224;22.506;2023-08-01T11:38:57;98083.00;;;24.54;52.25
62402;BME280;48440;51.224;22.506;2023-08-01T11:41:24;98089.19;;;24.44;53.49
62402;BME280;48440;51.224;22.506;2023-08-01T11:43:49;98085.59;;;24.40;53.81
62402;BME280;48440;51.224;22.506;2023-08-01T11:46:16;98089.50;;;24.35;53.48
62402;BME280;48440;51.224;22.506;2023-08-01T11:48:46;98082.34;;;24.34;53.96
62402;BME280;48440;51.224;22.506;2023-08-01T11:51:12;98091.41;;;24.31;54.19
62402;BME280;48440;51.224;22.506;2023-08-01T11:53:37;98092.44;;;24.23;53.53
62402;BME280;48440;51.224;22.506;2023-08-01T11:56:06;98088.44;;;24.21;53.96
62402;BME280;48440;51.224;22.506;2023-08-01T11:58:33;98090.41;;;24.20;54.35
62402;BME280;48440;51.224;22.506;2023-08-01T12:03:30;98086.59;;;24.28;54.68
62402;BME280;48440;51.224;22.506;2023-08-01T12:06:05;98074.72;;;24.28;56.25
62402;BME280;48440;51.224;22.506;2023-08-01T12:08:34;98074.34;;;24.29;56.17
62402;BME280;48440;51.224;22.506;2023-08-01T12:10:59;98084.22;;;24.27;55.15
62402;BME280;48440;51.224;22.506;2023-08-01T12:13:26;98074.78;;;24.31;54.92
62402;BME280;48440;51.224;22.506;2023-08-01T12:15:53;98071.25;;;24.34;54.53
62402;BME280;48440;51.224;22.506;2023-08-01T12:18:23;98074.88;;;24.39;54.31
62402;BME280;48440;51.224;22.506;2023-08-01T12:20:50;98077.72;;;24.46;54.37
62402;BME280;48440;51.224;22.506;2023-08-01T12:23:15;98065.84;;;24.45;53.52
62402;BME280;48440;51.224;22.506;2023-08-01T12:25:41;98062.78;;;24.54;53.92
62402;BME280;48440;51.224;22.506;2023-08-01T12:28:06;98065.56;;;24.54;53.28
62402;BME280;48440;51.224;22.506;2023-08-01T12:30:32;98061.63;;;24.55;53.88
62402;BME280;48440;51.224;22.506;2023-08-01T12:33:00;98060.03;;;24.54;54.73
62402;BME280;48440;51.224;22.506;2023-08-01T12:35:26;98062.84;;;24.57;54.16
62402;BME280;48440;51.224;22.506;2023-08-01T12:37:57;98059.28;;;24.57;52.86
62402;BME280;48440;51.224;22.506;2023-08-01T12:40:25;98048.66;;;24.62;51.85
62402;BME280;48440;51.224;22.506;2023-08-01T12:42:51;98049.50;;;24.66;50.96
62402;BME280;48440;51.224;22.506;2023-08-01T12:45:16;98055.31;;;24.58;49.45
62402;BME280;48440;51.224;22.506;2023-08-01T12:47:42;98050.16;;;24.56;50.13
62402;BME280;48440;51.224;22.506;2023-08-01T12:50:10;98045.03;;;24.58;50.46
62402;BME280;48440;51.224;22.506;2023-08-01T12:52:35;98039.13;;;24.60;49.94
62402;BME280;48440;51.224;22.506;2023-08-01T12:55:01;98049.03;;;24.61;49.18
62402;BME280;48440;51.224;22.506;2023-08-01T12:57:26;98051.38;;;24.59;49.90
62402;BME280;48440;51.224;22.506;2023-08-01T12:59:52;98047.44;;;24.60;49.92
62402;BME280;48440;51.224;22.506;2023-08-01T13:02:17;98050.53;;;24.55;50.49
62402;BME280;48440;51.224;22.506;2023-08-01T13:04:43;98044.72;;;24.63;51.33
62402;BME280;48440;51.224;22.506;2023-08-01T13:07:08;98049.88;;;24.65;51.62
62402;BME280;48440;51.224;22.506;2023-08-01T13:09:34;98038.44;;;24.70;51.62
62402;BME280;48440;51.224;22.506;2023-08-01T13:11:59;98034.53;;;24.75;52.10
62402;BME280;48440;51.224;22.506;2023-08-01T13:14:25;98026.56;;;24.73;51.81
62402;BME280;48440;51.224;22.506;2023-08-01T13:16:51;98037.25;;;24.71;51.42
62402;BME280;48440;51.224;22.506;2023-08-01T13:19:17;98030.91;;;24.70;51.42